sensor_id;sensor_type;location;lat;lon;timestamp;pressure;altitude;pressure_sealevel;temperature
34023;BMP280;20673;48.980;8.138;2022-07-29T00:01:00;99752.98;;;20.54
34023;BMP280;20673;48.980;8.138;2022-07-29T00:03:26;99754.45;;;20.45
34023;BMP280;20673;48.980;8.138;2022-07-29T00:05:53;99748.41;;;20.40
34023;BMP280;20673;48.980;8.138;2022-07-29T00:08:19;99749.45;;;20.34
34023;BMP280;20673;48.980;8.138;2022-07-29T00:10:46;99744.00;;;20.32
34023;BMP280;20673;48.980;8.138;2022-07-29T00:13:12;99742.31;;;20.32
34023;BMP280;20673;48.980;8.138;2022-07-29T00:15:38;99746.97;;;20.27
34023;BMP280;20673;48.980;8.138;2022-07-29T00:18:04;99744.51;;;20.21
34023;BMP280;20673;48.980;8.138;2022-07-29T00:20:31;99746.33;;;20.14
34023;BMP280;20673;48.980;8.138;2022-07-29T00:22:57;99742.65;;;20.12
34023;BMP280;20673;48.980;8.138;2022-07-29T00:25:23;99739.43;;;20.10
34023;BMP280;20673;48.980;8.138;2022-07-29T00:27:49;99732.40;;;20.05
34023;BMP280;20673;48.980;8.138;2022-07-29T00:30:16;99725.53;;;19.98
34023;BMP280;20673;48.980;8.138;2022-07-29T00:32:42;99728.20;;;19.91
34023;BMP280;20673;48.980;8.138;2022-07-29T00:35:09;99728.76;;;19.85
34023;BMP280;20673;48.980;8.138;2022-07-29T00:37:53;99720.78;;;19.83
34023;BMP280;20673;48.980;8.138;2022-07-29T00:40:20;99722.11;;;19.76
34023;BMP280;20673;48.980;8.138;2022-07-29T00:42:50;99719.88;;;19.68
34023;BMP280;20673;48.980;8.138;2022-07-29T00:45:17;99725.46;;;19.63
34023;BMP280;20673;48.980;8.138;2022-07-29T00:47:43;99724.36;;;19.53
34023;BMP280;20673;48.980;8.138;2022-07-29T00:50:12;99722.79;;;19.50
34023;BMP280;20673;48.980;8.138;2022-07-29T00:52:40;99724.04;;;19.43
34023;BMP280;20673;48.980;8.138;2022-07-29T00:55:10;99729.09;;;19.35
34023;BMP280;20673;48.980;8.138;2022-07-29T00:57:38;99728.43;;;19.30
34023;BMP280;20673;48.980;8.138;2022-07-29T01:00:10;99728.98;;;19.29
34023;BMP280;20673;48.980;8.138;2022-07-29T01:02:36;99725.84;;;19.26
34023;BMP280;20673;48.980;8.138;2022-07-29T01:05:04;99725.69;;;19.22
34023;BMP280;20673;48.980;8.138;2022-07-29T01:07:35;99731.61;;;19.20
34023;BMP280;20673;48.980;8.138;2022-07-29T01:10:09;99724.77;;;19.16
34023;BMP280;20673;48.980;8.138;2022-07-29T01:12:37;99722.75;;;19.12
34023;BMP280;20673;48.980;8.138;2022-07-29T01:15:06;99721.51;;;19.05
34023;BMP280;20673;48.980;8.138;2022-07-29T01:31:27;99722.58;;;18.80
34023;BMP280;20673;48.980;8.138;2022-07-29T01:33:55;99720.36;;;18.78
34023;BMP280;20673;48.980;8.138;2022-07-29T01:36:51;99726.81;;;18.76
34023;BMP280;20673;48.980;8.138;2022-07-29T01:39:30;99727.83;;;18.69
34023;BMP280;20673;48.980;8.138;2022-07-29T01:42:05;99731.89;;;18.60
34023;BMP280;20673;48.980;8.138;2022-07-29T01:44:50;99730.63;;;18.50
34023;BMP280;20673;48.980;8.138;2022-07-29T01:47:20;99732.83;;;18.51
34023;BMP280;20673;48.980;8.138;2022-07-29T01:49:51;99727.26;;;18.51
34023;BMP280;20673;48.980;8.138;2022-07-29T01:52:42;99731.18;;;18.49
34023;BMP280;20673;48.980;8.138;2022-07-29T01:55:14;99731.05;;;18.43
34023;BMP280;20673;48.980;8.138;2022-07-29T01:57:45;99735.55;;;18.34
34023;BMP280;20673;48.980;8.138;2022-07-29T02:00:14;99732.86;;;18.34
34023;BMP280;20673;48.980;8.138;2022-07-29T02:02:43;99731.71;;;18.32
34023;BMP280;20673;48.980;8.138;2022-07-29T02:05:15;99731.83;;;18.25
34023;BMP280;20673;48.980;8.138;2022-07-29T02:07:43;99736.55;;;18.23
34023;BMP280;20673;48.980;8.138;2022-07-29T02:10:12;99734.95;;;18.19
34023;BMP280;20673;48.980;8.138;2022-07-29T02:12:40;99733.47;;;18.20
34023;BMP280;20673;48.980;8.138;2022-07-29T02:15:10;99732.36;;;18.15
34023;BMP280;20673;48.980;8.138;2022-07-29T02:17:51;99736.72;;;18.16
34023;BMP280;20673;48.980;8.138;2022-07-29T02:20:19;99731.69;;;18.13
34023;BMP280;20673;48.980;8.138;2022-07-29T02:22:47;99730.90;;;18.15
34023;BMP280;20673;48.980;8.138;2022-07-29T02:25:16;99732.36;;;18.10
34023;BMP280;20673;48.980;8.138;2022-07-29T02:27:45;99736.06;;;18.06
34023;BMP280;20673;48.980;8.138;2022-07-29T02:30:13;99734.53;;;18.03
34023;BMP280;20673;48.980;8.138;2022-07-29T02:32:41;99730.81;;;18.03
34023;BMP280;20673;48.980;8.138;2022-07-29T02:35:09;99731.15;;;18.02
34023;BMP280;20673;48.980;8.138;2022-07-29T02:37:37;99734.68;;;18.03
34023;BMP280;20673;48.980;8.138;2022-07-29T02:40:06;99731.87;;;18.00
34023;BMP280;20673;48.980;8.138;2022-07-29T02:42:36;99732.83;;;18.03
34023;BMP280;20673;48.980;8.138;2022-07-29T02:45:05;99734.02;;;17.96
34023;BMP280;20673;48.980;8.138;2022-07-29T02:47:47;99737.97;;;17.88
34023;BMP280;20673;48.980;8.138;2022-07-29T02:50:32;99736.37;;;17.78
34023;BMP280;20673;48.980;8.138;2022-07-29T02:53:11;99738.08;;;17.75
34023;BMP280;20673;48.980;8.138;2022-07-29T02:55:57;99740.23;;;17.72
34023;BMP280;20673;48.980;8.138;2022-07-29T02:58:31;99744.64;;;17.65
34023;BMP280;20673;48.980;8.138;2022-07-29T03:01:02;99748.39;;;17.55
34023;BMP280;20673;48.980;8.138;2022-07-29T03:03:34;99751.25;;;17.53
34023;BMP280;20673;48.980;8.138;2022-07-29T03:06:02;99747.48;;;17.42
34023;BMP280;20673;48.980;8.138;2022-07-29T03:08:31;99748.92;;;17.39
34023;BMP280;20673;48.980;8.138;2022-07-29T03:10:58;99754.25;;;17.41
34023;BMP280;20673;48.980;8.138;2022-07-29T03:13:27;99750.29;;;17.29
34023;BMP280;20673;48.980;8.138;2022-07-29T03:15:55;99747.98;;;17.23
34023;BMP280;20673;48.980;8.138;2022-07-29T03:18:24;99757.00;;;17.15
34023;BMP280;20673;48.980;8.138;2022-07-29T03:20:51;99757.94;;;17.07
34023;BMP280;20673;48.980;8.138;2022-07-29T03:23:23;99752.51;;;17.10
34023;BMP280;20673;48.980;8.138;2022-07-29T03:25:50;99758.31;;;17.05
34023;BMP280;20673;48.980;8.138;2022-07-29T03:28:17;99758.22;;;16.95
34023;BMP280;20673;48.980;8.138;2022-07-29T03:30:43;99757.04;;;16.93
34023;BMP280;20673;48.980;8.138;2022-07-29T03:33:09;99758.03;;;16.84
34023;BMP280;20673;48.980;8.138;2022-07-29T03:35:35;99761.06;;;16.82
34023;BMP280;20673;48.980;8.138;2022-07-29T03:38:02;99761.04;;;16.76
34023;BMP280;20673;48.980;8.138;2022-07-29T03:40:54;99762.37;;;16.71
34023;BMP280;20673;48.980;8.138;2022-07-29T03:43:23;99766.10;;;16.69
34023;BMP280;20673;48.980;8.138;2022-07-29T03:45:53;99766.77;;;16.69
34023;BMP280;20673;48.980;8.138;2022-07-29T03:48:23;99767.01;;;16.70
34023;BMP280;20673;48.980;8.138;2022-07-29T03:50:50;99777.97;;;16.68
34023;BMP280;20673;48.980;8.138;2022-07-29T03:53:17;99771.51;;;16.67
34023;BMP280;20673;48.980;8.138;2022-07-29T03:55:48;99772.34;;;16.65
34023;BMP280;20673;48.980;8.138;2022-07-29T03:58:17;99777.61;;;16.53
34023;BMP280;20673;48.980;8.138;2022-07-29T04:00:45;99776.40;;;16.48
34023;BMP280;20673;48.980;8.138;2022-07-29T04:03:12;99776.49;;;16.43
34023;BMP280;20673;48.980;8.138;2022-07-29T04:05:39;99774.81;;;16.44
34023;BMP280;20673;48.980;8.138;2022-07-29T04:08:05;99773.65;;;16.39
34023;BMP280;20673;48.980;8.138;2022-07-29T04:10:32;99778.25;;;16.31
34023;BMP280;20673;48.980;8.138;2022-07-29T04:12:59;99780.06;;;16.31
34023;BMP280;20673;48.980;8.138;2022-07-29T04:15:25;99780.33;;;16.30
34023;BMP280;20673;48.980;8.138;2022-07-29T04:17:53;99781.37;;;16.33
34023;BMP280;20673;48.980;8.138;2022-07-29T04:20:19;99778.90;;;16.35
34023;BMP280;20673;48.980;8.138;2022-07-29T04:22:45;99785.92;;;16.34
34023;BMP280;20673;48.980;8.138;2022-07-29T04:25:11;99790.05;;;16.30
34023;BMP280;20673;48.980;8.138;2022-07-29T04:27:37;99793.95;;;16.30
34023;BMP280;20673;48.980;8.138;2022-07-29T04:30:06;99790.95;;;16.32
34023;BMP280;20673;48.980;8.138;2022-07-29T04:32:33;99792.53;;;16.35
34023;BMP280;20673;48.980;8.138;2022-07-29T04:34:59;99788.65;;;16.31
34023;BMP280;20673;48.980;8.138;2022-07-29T04:37:25;99793.76;;;16.26
34023;BMP280;20673;48.980;8.138;2022-07-29T04:39:51;99794.58;;;16.28
34023;BMP280;20673;48.980;8.138;2022-07-29T04:42:17;99792.11;;;16.28
34023;BMP280;20673;48.980;8.138;2022-07-29T04:44:43;99788.73;;;16.34
34023;BMP280;20673;48.980;8.138;2022-07-29T04:47:09;99795.09;;;16.40
34023;BMP280;20673;48.980;8.138;2022-07-29T04:49:38;99799.39;;;16.47
34023;BMP280;20673;48.980;8.138;2022-07-29T04:52:05;99798.83;;;16.54
34023;BMP280;20673;48.980;8.138;2022-07-29T04:54:31;99803.14;;;16.57
34023;BMP280;20673;48.980;8.138;2022-07-29T04:56:57;99802.36;;;16.64
34023;BMP280;20673;48.980;8.138;2022-07-29T04:59:24;99804.72;;;16.71
34023;BMP280;20673;48.980;8.138;2022-07-29T05:01:50;99809.41;;;16.78
34023;BMP280;20673;48.980;8.138;2022-07-29T05:04:17;99798.44;;;16.89
34023;BMP280;20673;48.980;8.138;2022-07-29T05:06:43;99801.67;;;16.99
34023;BMP280;20673;48.980;8.138;2022-07-29T05:09:09;99805.50;;;17.10
34023;BMP280;20673;48.980;8.138;2022-07-29T05:11:35;99805.12;;;17.18
34023;BMP280;20673;48.980;8.138;2022-07-29T05:14:01;99804.88;;;17.29
34023;BMP280;20673;48.980;8.138;2022-07-29T05:16:27;99803.69;;;17.41
34023;BMP280;20673;48.980;8.138;2022-07-29T05:18:53;99804.97;;;17.52
34023;BMP280;20673;48.980;8.138;2022-07-29T05:21:19;99798.37;;;17.65
34023;BMP280;20673;48.980;8.138;2022-07-29T05:23:46;99800.95;;;17.77
34023;BMP280;20673;48.980;8.138;2022-07-29T05:26:12;99801.98;;;17.94
34023;BMP280;20673;48.980;8.138;2022-07-29T05:28:38;99797.97;;;18.07
34023;BMP280;20673;48.980;8.138;2022-07-29T05:31:04;99800.68;;;18.23
34023;BMP280;20673;48.980;8.138;2022-07-29T05:33:30;99810.22;;;18.38
34023;BMP280;20673;48.980;8.138;2022-07-29T05:35:58;99813.61;;;18.51
34023;BMP280;20673;48.980;8.138;2022-07-29T05:38:24;99817.02;;;18.65
34023;BMP280;20673;48.980;8.138;2022-07-29T05:40:50;99820.54;;;18.82
34023;BMP280;20673;48.980;8.138;2022-07-29T05:43:16;99818.78;;;18.98
34023;BMP280;20673;48.980;8.138;2022-07-29T05:45:42;99820.98;;;19.11
34023;BMP280;20673;48.980;8.138;2022-07-29T05:48:09;99821.03;;;19.28
34023;BMP280;20673;48.980;8.138;2022-07-29T05:50:35;99832.37;;;19.43
34023;BMP280;20673;48.980;8.138;2022-07-29T05:53:01;99833.59;;;19.60
34023;BMP280;20673;48.980;8.138;2022-07-29T05:55:27;99836.51;;;19.82
34023;BMP280;20673;48.980;8.138;2022-07-29T05:57:53;99828.95;;;20.06
34023;BMP280;20673;48.980;8.138;2022-07-29T06:00:19;99837.61;;;20.22
34023;BMP280;20673;48.980;8.138;2022-07-29T06:02:45;99844.32;;;20.38
34023;BMP280;20673;48.980;8.138;2022-07-29T06:05:12;99849.32;;;20.46
34023;BMP280;20673;48.980;8.138;2022-07-29T06:07:38;99851.21;;;20.61
34023;BMP280;20673;48.980;8.138;2022-07-29T06:10:05;99854.68;;;20.66
34023;BMP280;20673;48.980;8.138;2022-07-29T06:12:31;99854.93;;;20.78
34023;BMP280;20673;48.980;8.138;2022-07-29T06:14:57;99856.61;;;20.86
34023;BMP280;20673;48.980;8.138;2022-07-29T06:17:23;99858.01;;;20.93
34023;BMP280;20673;48.980;8.138;2022-07-29T06:19:49;99856.49;;;21.06
34023;BMP280;20673;48.980;8.138;2022-07-29T06:22:16;99854.51;;;21.21
34023;BMP280;20673;48.980;8.138;2022-07-29T06:24:43;99855.20;;;21.35
34023;BMP280;20673;48.980;8.138;2022-07-29T06:27:12;99857.58;;;21.35
34023;BMP280;20673;48.980;8.138;2022-07-29T06:29:38;99859.06;;;21.47
34023;BMP280;20673;48.980;8.138;2022-07-29T06:32:05;99852.93;;;21.59
34023;BMP280;20673;48.980;8.138;2022-07-29T06:34:32;99852.79;;;21.86
34023;BMP280;20673;48.980;8.138;2022-07-29T06:36:58;99855.76;;;22.06
34023;BMP280;20673;48.980;8.138;2022-07-29T06:39:24;99846.67;;;22.18
34023;BMP280;20673;48.980;8.138;2022-07-29T06:41:50;99854.64;;;22.38
34023;BMP280;20673;48.980;8.138;2022-07-29T06:44:17;99858.03;;;22.44
34023;BMP280;20673;48.980;8.138;2022-07-29T06:46:44;99862.14;;;22.56
34023;BMP280;20673;48.980;8.138;2022-07-29T06:49:10;99863.51;;;22.62
34023;BMP280;20673;48.980;8.138;2022-07-29T06:51:38;99861.31;;;22.46
34023;BMP280;20673;48.980;8.138;2022-07-29T06:54:04;99863.12;;;22.72
34023;BMP280;20673;48.980;8.138;2022-07-29T06:56:32;99867.40;;;22.73
34023;BMP280;20673;48.980;8.138;2022-07-29T06:58:58;99863.56;;;22.82
34023;BMP280;20673;48.980;8.138;2022-07-29T07:01:24;99871.33;;;22.98
34023;BMP280;20673;48.980;8.138;2022-07-29T07:03:50;99868.61;;;23.07
34023;BMP280;20673;48.980;8.138;2022-07-29T07:06:17;99872.73;;;23.25
34023;BMP280;20673;48.980;8.138;2022-07-29T07:08:43;99875.00;;;23.42
34023;BMP280;20673;48.980;8.138;2022-07-29T07:11:09;99880.04;;;23.55
34023;BMP280;20673;48.980;8.138;2022-07-29T07:13:35;99883.20;;;23.59
34023;BMP280;20673;48.980;8.138;2022-07-29T07:16:02;99881.21;;;23.84
34023;BMP280;20673;48.980;8.138;2022-07-29T07:18:29;99875.17;;;23.94
34023;BMP280;20673;48.980;8.138;2022-07-29T07:20:56;99879.79;;;24.10
34023;BMP280;20673;48.980;8.138;2022-07-29T07:23:23;99880.65;;;24.18
34023;BMP280;20673;48.980;8.138;2022-07-29T07:25:49;99881.06;;;24.22
34023;BMP280;20673;48.980;8.138;2022-07-29T07:28:15;99886.79;;;24.37
34023;BMP280;20673;48.980;8.138;2022-07-29T07:30:42;99894.55;;;24.46
34023;BMP280;20673;48.980;8.138;2022-07-29T07:33:08;99891.36;;;24.52
34023;BMP280;20673;48.980;8.138;2022-07-29T07:35:35;99885.61;;;24.64
34023;BMP280;20673;48.980;8.138;2022-07-29T07:38:01;99880.09;;;24.89
34023;BMP280;20673;48.980;8.138;2022-07-29T07:40:28;99880.11;;;24.95
34023;BMP280;20673;48.980;8.138;2022-07-29T07:42:54;99882.59;;;24.92
34023;BMP280;20673;48.980;8.138;2022-07-29T07:45:20;99878.86;;;25.09
34023;BMP280;20673;48.980;8.138;2022-07-29T07:47:46;99877.97;;;25.20
34023;BMP280;20673;48.980;8.138;2022-07-29T07:50:13;99886.63;;;25.31
34023;BMP280;20673;48.980;8.138;2022-07-29T07:52:51;99880.72;;;25.36
34023;BMP280;20673;48.980;8.138;2022-07-29T07:55:19;99883.72;;;25.37
34023;BMP280;20673;48.980;8.138;2022-07-29T07:57:46;99879.50;;;25.18
34023;BMP280;20673;48.980;8.138;2022-07-29T08:00:15;99879.15;;;25.04
34023;BMP280;20673;48.980;8.138;2022-07-29T08:02:42;99883.42;;;24.87
34023;BMP280;20673;48.980;8.138;2022-07-29T08:05:12;99882.22;;;24.84
34023;BMP280;20673;48.980;8.138;2022-07-29T08:07:41;99879.03;;;24.78
34023;BMP280;20673;48.980;8.138;2022-07-29T08:10:08;99889.64;;;24.97
34023;BMP280;20673;48.980;8.138;2022-07-29T08:12:34;99891.56;;;25.15
34023;BMP280;20673;48.980;8.138;2022-07-29T08:15:00;99894.43;;;25.35
34023;BMP280;20673;48.980;8.138;2022-07-29T08:17:27;99893.68;;;25.80
34023;BMP280;20673;48.980;8.138;2022-07-29T08:19:53;99898.86;;;25.76
34023;BMP280;20673;48.980;8.138;2022-07-29T08:22:20;99899.67;;;25.86
34023;BMP280;20673;48.980;8.138;2022-07-29T08:24:46;99896.93;;;26.05
34023;BMP280;20673;48.980;8.138;2022-07-29T08:27:14;99893.32;;;26.30
34023;BMP280;20673;48.980;8.138;2022-07-29T08:29:40;99897.68;;;26.10
34023;BMP280;20673;48.980;8.138;2022-07-29T08:32:06;99902.03;;;26.17
34023;BMP280;20673;48.980;8.138;2022-07-29T08:34:33;99896.68;;;26.15
34023;BMP280;20673;48.980;8.138;2022-07-29T08:36:59;99905.46;;;25.99
34023;BMP280;20673;48.980;8.138;2022-07-29T08:39:25;99906.62;;;25.94
34023;BMP280;20673;48.980;8.138;2022-07-29T08:41:52;99902.91;;;25.75
34023;BMP280;20673;48.980;8.138;2022-07-29T08:44:19;99905.86;;;25.48
34023;BMP280;20673;48.980;8.138;2022-07-29T08:46:49;99917.20;;;25.58
34023;BMP280;20673;48.980;8.138;2022-07-29T08:49:16;99913.09;;;25.91
34023;BMP280;20673;48.980;8.138;2022-07-29T08:51:43;99911.25;;;25.87
34023;BMP280;20673;48.980;8.138;2022-07-29T08:54:11;99916.42;;;26.05
34023;BMP280;20673;48.980;8.138;2022-07-29T08:56:39;99908.00;;;26.11
34023;BMP280;20673;48.980;8.138;2022-07-29T08:59:07;99910.29;;;26.47
34023;BMP280;20673;48.980;8.138;2022-07-29T09:01:37;99909.40;;;26.49
34023;BMP280;20673;48.980;8.138;2022-07-29T09:04:09;99908.28;;;26.58
34023;BMP280;20673;48.980;8.138;2022-07-29T09:06:42;99907.75;;;26.65
34023;BMP280;20673;48.980;8.138;2022-07-29T09:09:08;99907.90;;;26.69
34023;BMP280;20673;48.980;8.138;2022-07-29T09:11:35;99905.90;;;26.73
34023;BMP280;20673;48.980;8.138;2022-07-29T09:14:01;99908.48;;;26.67
34023;BMP280;20673;48.980;8.138;2022-07-29T09:16:46;99904.15;;;26.75
34023;BMP280;20673;48.980;8.138;2022-07-29T09:19:31;99898.50;;;26.91
34023;BMP280;20673;48.980;8.138;2022-07-29T09:22:04;99891.57;;;27.12
34023;BMP280;20673;48.980;8.138;2022-07-29T09:24:41;99895.18;;;27.17
34023;BMP280;20673;48.980;8.138;2022-07-29T09:27:20;99892.26;;;27.70
34023;BMP280;20673;48.980;8.138;2022-07-29T09:29:54;99890.75;;;27.66
34023;BMP280;20673;48.980;8.138;2022-07-29T09:32:15;99891.43;;;27.78
34023;BMP280;20673;48.980;8.138;2022-07-29T09:34:41;99893.20;;;27.83
34023;BMP280;20673;48.980;8.138;2022-07-29T09:37:08;99892.43;;;27.83
34023;BMP280;20673;48.980;8.138;2022-07-29T09:39:38;99899.20;;;28.18
34023;BMP280;20673;48.980;8.138;2022-07-29T09:42:06;99902.31;;;28.08
34023;BMP280;20673;48.980;8.138;2022-07-29T09:44:46;99899.12;;;28.51
34023;BMP280;20673;48.980;8.138;2022-07-29T09:47:15;99892.47;;;28.44
34023;BMP280;20673;48.980;8.138;2022-07-29T09:49:55;99900.23;;;28.62
34023;BMP280;20673;48.980;8.138;2022-07-29T09:52:27;99897.07;;;28.72
34023;BMP280;20673;48.980;8.138;2022-07-29T09:55:09;99899.50;;;28.69
34023;BMP280;20673;48.980;8.138;2022-07-29T09:57:36;99898.51;;;28.74
34023;BMP280;20673;48.980;8.138;2022-07-29T10:00:07;99902.04;;;28.68
34023;BMP280;20673;48.980;8.138;2022-07-29T10:02:37;99902.48;;;28.66
34023;BMP280;20673;48.980;8.138;2022-07-29T10:05:15;99904.32;;;29.14
34023;BMP280;20673;48.980;8.138;2022-07-29T10:10:22;99901.77;;;29.52
34023;BMP280;20673;48.980;8.138;2022-07-29T10:12:56;99900.79;;;29.85
34023;BMP280;20673;48.980;8.138;2022-07-29T10:15:26;99904.30;;;30.04
34023;BMP280;20673;48.980;8.138;2022-07-29T10:17:54;99900.08;;;29.70
34023;BMP280;20673;48.980;8.138;2022-07-29T10:20:26;99885.38;;;29.66
34023;BMP280;20673;48.980;8.138;2022-07-29T10:22:53;99892.59;;;29.46
34023;BMP280;20673;48.980;8.138;2022-07-29T10:25:23;99887.64;;;29.72
34023;BMP280;20673;48.980;8.138;2022-07-29T10:27:50;99889.93;;;29.58
34023;BMP280;20673;48.980;8.138;2022-07-29T10:30:18;99883.08;;;29.96
34023;BMP280;20673;48.980;8.138;2022-07-29T10:42:08;99870.53;;;30.75
34023;BMP280;20673;48.980;8.138;2022-07-29T10:44:34;99864.14;;;30.81
34023;BMP280;20673;48.980;8.138;2022-07-29T10:47:00;99860.40;;;30.01
34023;BMP280;20673;48.980;8.138;2022-07-29T10:49:27;99862.15;;;30.71
34023;BMP280;20673;48.980;8.138;2022-07-29T10:52:09;99858.67;;;30.40
34023;BMP280;20673;48.980;8.138;2022-07-29T10:54:40;99869.30;;;30.50
34023;BMP280;20673;48.980;8.138;2022-07-29T10:57:30;99870.76;;;30.53
34023;BMP280;20673;48.980;8.138;2022-07-29T11:02:44;99861.26;;;30.52
34023;BMP280;20673;48.980;8.138;2022-07-29T11:05:14;99854.50;;;30.96
34023;BMP280;20673;48.980;8.138;2022-07-29T11:10:39;99847.22;;;30.83
34023;BMP280;20673;48.980;8.138;2022-07-29T11:13:06;99840.58;;;30.87
34023;BMP280;20673;48.980;8.138;2022-07-29T11:15:54;99849.77;;;30.41
34023;BMP280;20673;48.980;8.138;2022-07-29T11:18:21;99853.11;;;29.99
34023;BMP280;20673;48.980;8.138;2022-07-29T11:20:49;99846.76;;;30.18
34023;BMP280;20673;48.980;8.138;2022-07-29T11:23:31;99848.34;;;30.19
34023;BMP280;20673;48.980;8.138;2022-07-29T11:26:17;99856.70;;;30.76
34023;BMP280;20673;48.980;8.138;2022-07-29T11:29:06;99854.90;;;31.19
34023;BMP280;20673;48.980;8.138;2022-07-29T11:31:37;99859.72;;;32.00
34023;BMP280;20673;48.980;8.138;2022-07-29T11:34:28;99850.80;;;32.33
34023;BMP280;20673;48.980;8.138;2022-07-29T11:45:09;99842.43;;;31.45
34023;BMP280;20673;48.980;8.138;2022-07-29T11:47:49;99842.08;;;31.73
34023;BMP280;20673;48.980;8.138;2022-07-29T11:50:29;99843.23;;;31.32
34023;BMP280;20673;48.980;8.138;2022-07-29T11:52:56;99839.67;;;31.26
34023;BMP280;20673;48.980;8.138;2022-07-29T11:55:24;99844.06;;;31.22
34023;BMP280;20673;48.980;8.138;2022-07-29T11:57:59;99843.41;;;31.20
34023;BMP280;20673;48.980;8.138;2022-07-29T12:00:39;99841.01;;;31.21
34023;BMP280;20673;48.980;8.138;2022-07-29T12:03:08;99837.08;;;31.10
34023;BMP280;20673;48.980;8.138;2022-07-29T12:05:43;99843.15;;;31.09
34023;BMP280;20673;48.980;8.138;2022-07-29T12:08:19;99844.84;;;30.93
34023;BMP280;20673;48.980;8.138;2022-07-29T12:10:49;99853.52;;;30.50
34023;BMP280;20673;48.980;8.138;2022-07-29T12:13:19;99847.88;;;30.44
34023;BMP280;20673;48.980;8.138;2022-07-29T12:15:57;99847.15;;;30.47
34023;BMP280;20673;48.980;8.138;2022-07-29T12:18:24;99846.03;;;30.22
34023;BMP280;20673;48.980;8.138;2022-07-29T12:20:59;99842.38;;;29.91
34023;BMP280;20673;48.980;8.138;2022-07-29T12:23:28;99839.55;;;29.77
34023;BMP280;20673;48.980;8.138;2022-07-29T12:25:54;99844.04;;;29.79
34023;BMP280;20673;48.980;8.138;2022-07-29T12:28:21;99842.67;;;29.79
34023;BMP280;20673;48.980;8.138;2022-07-29T12:30:49;99843.19;;;29.67
34023;BMP280;20673;48.980;8.138;2022-07-29T12:33:26;99843.67;;;29.81
34023;BMP280;20673;48.980;8.138;2022-07-29T12:36:00;99844.09;;;29.82
34023;BMP280;20673;48.980;8.138;2022-07-29T12:38:28;99845.86;;;29.91
34023;BMP280;20673;48.980;8.138;2022-07-29T12:40:55;99848.00;;;30.21
34023;BMP280;20673;48.980;8.138;2022-07-29T12:43:23;99852.09;;;29.93
34023;BMP280;20673;48.980;8.138;2022-07-29T12:45:55;99860.17;;;29.78
34023;BMP280;20673;48.980;8.138;2022-07-29T12:48:40;99856.18;;;30.02
34023;BMP280;20673;48.980;8.138;2022-07-29T12:51:08;99856.98;;;30.13
34023;BMP280;20673;48.980;8.138;2022-07-29T12:53:36;99854.76;;;30.26
34023;BMP280;20673;48.980;8.138;2022-07-29T12:56:05;99851.03;;;30.56
34023;BMP280;20673;48.980;8.138;2022-07-29T12:58:37;99854.95;;;30.29
34023;BMP280;20673;48.980;8.138;2022-07-29T13:01:14;99852.81;;;30.31
34023;BMP280;20673;48.980;8.138;2022-07-29T13:03:55;99852.08;;;30.26
34023;BMP280;20673;48.980;8.138;2022-07-29T13:09:19;99853.47;;;29.87
34023;BMP280;20673;48.980;8.138;2022-07-29T13:11:51;99858.75;;;29.68
34023;BMP280;20673;48.980;8.138;2022-07-29T13:14:34;99853.33;;;29.49
34023;BMP280;20673;48.980;8.138;2022-07-29T13:17:24;99863.58;;;29.48
34023;BMP280;20673;48.980;8.138;2022-07-29T13:20:03;99858.70;;;29.41
34023;BMP280;20673;48.980;8.138;2022-07-29T13:22:22;99856.26;;;29.57
34023;BMP280;20673;48.980;8.138;2022-07-29T13:25:01;99857.44;;;29.67
34023;BMP280;20673;48.980;8.138;2022-07-29T13:27:32;99858.25;;;29.78
34023;BMP280;20673;48.980;8.138;2022-07-29T13:30:00;99855.28;;;30.26
34023;BMP280;20673;48.980;8.138;2022-07-29T13:32:29;99854.90;;;30.15
34023;BMP280;20673;48.980;8.138;2022-07-29T13:34:57;99858.40;;;30.09
34023;BMP280;20673;48.980;8.138;2022-07-29T13:37:23;99854.11;;;30.50
34023;BMP280;20673;48.980;8.138;2022-07-29T13:39:49;99860.09;;;30.13
34023;BMP280;20673;48.980;8.138;2022-07-29T13:42:16;99859.29;;;30.20
34023;BMP280;20673;48.980;8.138;2022-07-29T13:44:42;99851.83;;;30.00
34023;BMP280;20673;48.980;8.138;2022-07-29T13:47:08;99848.88;;;30.09
34023;BMP280;20673;48.980;8.138;2022-07-29T13:49:35;99856.14;;;30.07
34023;BMP280;20673;48.980;8.138;2022-07-29T13:52:02;99850.69;;;29.98
34023;BMP280;20673;48.980;8.138;2022-07-29T13:54:29;99842.83;;;29.78
34023;BMP280;20673;48.980;8.138;2022-07-29T13:56:55;99842.00;;;29.70
34023;BMP280;20673;48.980;8.138;2022-07-29T13:59:21;99845.14;;;29.83
34023;BMP280;20673;48.980;8.138;2022-07-29T14:01:47;99845.08;;;29.86
34023;BMP280;20673;48.980;8.138;2022-07-29T14:04:14;99841.56;;;29.78
34023;BMP280;20673;48.980;8.138;2022-07-29T14:06:40;99844.09;;;29.74
34023;BMP280;20673;48.980;8.138;2022-07-29T14:09:06;99842.95;;;30.00
34023;BMP280;20673;48.980;8.138;2022-07-29T14:11:35;99839.18;;;30.23
34023;BMP280;20673;48.980;8.138;2022-07-29T14:14:02;99838.15;;;30.46
34023;BMP280;20673;48.980;8.138;2022-07-29T14:16:28;99826.18;;;30.26
34023;BMP280;20673;48.980;8.138;2022-07-29T14:18:54;99832.08;;;30.58
34023;BMP280;20673;48.980;8.138;2022-07-29T14:21:21;99829.93;;;30.56
34023;BMP280;20673;48.980;8.138;2022-07-29T14:23:47;99830.17;;;30.61
34023;BMP280;20673;48.980;8.138;2022-07-29T14:26:13;99826.86;;;30.92
34023;BMP280;20673;48.980;8.138;2022-07-29T14:28:40;99826.68;;;30.64
34023;BMP280;20673;48.980;8.138;2022-07-29T14:31:06;99820.20;;;30.73
34023;BMP280;20673;48.980;8.138;2022-07-29T14:33:33;99823.80;;;30.80
34023;BMP280;20673;48.980;8.138;2022-07-29T14:35:59;99830.79;;;30.74
34023;BMP280;20673;48.980;8.138;2022-07-29T14:38:25;99820.43;;;30.72
34023;BMP280;20673;48.980;8.138;2022-07-29T14:40:52;99815.62;;;30.69
34023;BMP280;20673;48.980;8.138;2022-07-29T14:43:18;99823.21;;;31.16
34023;BMP280;20673;48.980;8.138;2022-07-29T14:45:44;99823.28;;;31.29
34023;BMP280;20673;48.980;8.138;2022-07-29T14:48:11;99817.86;;;31.26
34023;BMP280;20673;48.980;8.138;2022-07-29T14:50:38;99816.66;;;31.69
34023;BMP280;20673;48.980;8.138;2022-07-29T14:53:04;99815.00;;;31.36
34023;BMP280;20673;48.980;8.138;2022-07-29T14:55:30;99814.11;;;31.59
34023;BMP280;20673;48.980;8.138;2022-07-29T14:57:56;99807.83;;;31.42
34023;BMP280;20673;48.980;8.138;2022-07-29T15:00:25;99814.60;;;31.44
34023;BMP280;20673;48.980;8.138;2022-07-29T15:02:51;99814.62;;;31.49